Terminal Aerodrome Forecast
Issued by NWS Northern Indiana

Home | Current Version | Previous Version | Graphics & Text | Print | Product List | Glossary On
Versions: 1 2 3 4 5 6 7 8 9 10 11 12 13
000
FTUS43 KIWX 302328
TAFFWA
TAF
KFWA 302328Z 3100/3124 25003KT P6SM SCT040
     FM310900 00000KT 3SM BR BKN020
      TEMPO 3110/3112 1SM BR BKN008
     FM311500 23007KT P6SM SCT030=

USA.gov is the U.S. government's official web portal to all federal, state and local government web resources and services.